createdAt,value
2019-02-08T00:03:50.673Z,9.10
2019-02-08T00:08:58.149Z,9.00
2019-02-08T00:14:04.867Z,9.00
2019-02-08T00:19:11.049Z,9.00
2019-02-08T00:24:16.485Z,8.90
2019-02-08T00:29:23.458Z,8.90
2019-02-08T00:34:29.322Z,8.90
2019-02-08T00:39:35.496Z,8.90
2019-02-08T00:44:42.790Z,8.90
2019-02-08T00:49:49.077Z,8.90
2019-02-08T00:54:57.614Z,8.90
2019-02-08T01:00:03.575Z,8.90
2019-02-08T01:05:12.361Z,9.00
2019-02-08T01:10:23.684Z,8.90
2019-02-08T01:15:30.531Z,9.00
2019-02-08T01:20:37.069Z,9.00
2019-02-08T01:25:44.922Z,8.90
2019-02-08T01:30:50.551Z,8.90
2019-02-08T01:35:56.851Z,8.90
2019-02-08T01:41:03.179Z,8.90
2019-02-08T01:46:10.446Z,8.90
2019-02-08T01:51:17.642Z,8.80
2019-02-08T01:56:23.208Z,8.80
2019-02-08T02:01:29.311Z,8.80
2019-02-08T02:06:35.993Z,8.80
2019-02-08T02:11:42.165Z,8.80
2019-02-08T02:16:48.281Z,8.80
2019-02-08T02:21:53.704Z,8.80
2019-02-08T02:26:58.401Z,8.80
2019-02-08T02:32:05.461Z,8.80
2019-02-08T02:37:12.130Z,8.80
2019-02-08T02:42:19.442Z,8.80
2019-02-08T02:47:25.079Z,8.70
2019-02-08T02:52:31.178Z,8.80
2019-02-08T02:57:36.860Z,8.80
2019-02-08T03:02:43.217Z,8.80
2019-02-08T03:07:49.613Z,8.80
2019-02-08T03:12:56.672Z,8.80
2019-02-08T03:18:02.952Z,8.80
2019-02-08T03:23:11.066Z,8.80
2019-02-08T03:28:18.792Z,8.80
2019-02-08T03:33:25.010Z,8.90
2019-02-08T03:38:30.536Z,8.90
2019-02-08T03:43:35.776Z,8.90
2019-02-08T03:48:42.881Z,8.90
2019-02-08T03:53:48.828Z,8.80
2019-02-08T03:58:54.661Z,8.90
2019-02-08T04:04:17.861Z,8.90
2019-02-08T04:09:23.387Z,8.90
2019-02-08T04:14:30.161Z,8.90
2019-02-08T04:19:36.279Z,8.90
2019-02-08T04:24:42.489Z,8.90
2019-02-08T04:29:51.317Z,8.90
2019-02-08T04:34:56.689Z,9.00
2019-02-08T04:40:02.856Z,9.00
2019-02-08T04:45:09.852Z,9.00
2019-02-08T04:50:17.975Z,9.00
2019-02-08T04:55:24.130Z,9.00
2019-02-08T05:00:35.572Z,9.00
2019-02-08T05:05:42.654Z,9.00
2019-02-08T05:10:48.057Z,9.00
2019-02-08T05:15:53.852Z,9.00
2019-02-08T05:21:02.168Z,9.00
2019-02-08T05:26:07.632Z,9.00
2019-02-08T05:31:14.097Z,9.00
2019-02-08T05:36:19.779Z,9.00
2019-02-08T05:41:26.168Z,9.00
2019-02-08T05:46:33.589Z,9.00
2019-02-08T05:51:39.618Z,9.00
2019-02-08T05:56:44.738Z,9.00
2019-02-08T06:01:51.707Z,9.00
2019-02-08T06:06:58.731Z,9.00
2019-02-08T06:12:03.810Z,9.00
2019-02-08T06:17:09.803Z,9.00
2019-02-08T06:22:15.825Z,9.00
2019-02-08T06:27:22.350Z,8.90
2019-02-08T06:32:27.960Z,8.90
2019-02-08T06:37:34.028Z,8.90
2019-02-08T06:42:39.840Z,8.90
2019-02-08T06:47:45.070Z,9.00
2019-02-08T06:52:50.945Z,9.00
2019-02-08T06:58:08.556Z,9.00
2019-02-08T07:03:49.268Z,9.00
2019-02-08T07:09:13.537Z,9.00
2019-02-08T07:14:43.616Z,9.10
2019-02-08T07:20:14.867Z,9.10
2019-02-08T07:25:33.653Z,9.20
2019-02-08T07:30:58.772Z,9.20
2019-02-08T07:36:27.618Z,9.20
2019-02-08T07:42:05.506Z,9.20
2019-02-08T07:47:34.306Z,9.30
2019-02-08T07:52:58.714Z,9.30
2019-02-08T07:58:23.555Z,9.30
2019-02-08T08:04:01.463Z,9.30
2019-02-08T08:09:33.037Z,9.30
2019-02-08T08:14:59.351Z,9.30
2019-02-08T08:20:24.953Z,9.30
2019-02-08T08:26:07.116Z,9.40
2019-02-08T08:31:38.926Z,9.40
2019-02-08T08:37:04.724Z,9.50
2019-02-08T08:42:38.052Z,9.50
2019-02-08T08:48:33.155Z,9.50
2019-02-08T08:54:15.027Z,9.50
2019-02-08T09:00:05.642Z,9.60
2019-02-08T09:05:55.949Z,9.60
2019-02-08T09:11:43.930Z,9.60
2019-02-08T09:17:24.297Z,9.60
2019-02-08T09:23:16.969Z,9.60
2019-02-08T09:29:09.964Z,9.70
2019-02-08T09:34:52.296Z,9.80
2019-02-08T09:40:26.298Z,9.90
2019-02-08T09:46:31.081Z,9.90
2019-02-08T09:52:31.187Z,10.00
2019-02-08T09:58:21.317Z,10.00
2019-02-08T10:04:12.363Z,10.00
2019-02-08T10:10:06.964Z,10.10
2019-02-08T10:15:55.323Z,10.20
2019-02-08T10:21:32.465Z,10.20
2019-02-08T10:27:20.800Z,10.30
2019-02-08T10:33:21.473Z,10.40
2019-02-08T10:39:06.019Z,10.50
2019-02-08T10:44:56.056Z,10.50
2019-02-08T10:50:56.960Z,10.60
2019-02-08T10:56:42.423Z,10.60
2019-02-08T11:02:52.870Z,10.60
2019-02-08T11:08:34.293Z,10.60
2019-02-08T11:14:25.894Z,10.60
2019-02-08T11:19:29.470Z,10.60
2019-02-08T11:24:36.848Z,10.60
2019-02-08T11:29:43.758Z,10.70
2019-02-08T11:34:49.488Z,10.80
2019-02-08T11:39:56.712Z,10.90
2019-02-08T11:45:03.561Z,11.00
2019-02-08T11:50:13.453Z,11.20
2019-02-08T11:55:21.355Z,11.20
2019-02-08T12:00:35.081Z,11.30
2019-02-08T12:05:40.309Z,11.40
2019-02-08T12:10:46.494Z,11.40
2019-02-08T12:15:52.507Z,11.60
2019-02-08T12:20:58.462Z,11.60
2019-02-08T12:26:04.814Z,11.60
2019-02-08T12:31:11.541Z,11.60
2019-02-08T12:36:17.778Z,11.60
2019-02-08T12:41:23.845Z,11.70
2019-02-08T12:46:29.675Z,11.70
2019-02-08T12:51:35.395Z,11.70
2019-02-08T12:56:45.591Z,11.70
2019-02-08T13:01:50.625Z,11.70
2019-02-08T13:06:55.641Z,11.70
2019-02-08T13:12:03.041Z,11.70
2019-02-08T13:17:08.698Z,11.70
2019-02-08T13:22:14.666Z,11.70
2019-02-08T13:27:23.524Z,11.70
2019-02-08T13:32:29.493Z,11.70
2019-02-08T13:37:35.991Z,11.80
2019-02-08T13:42:41.172Z,11.80
2019-02-08T13:47:50.340Z,11.70
2019-02-08T13:52:57.660Z,11.80
2019-02-08T13:58:03.694Z,11.80
2019-02-08T14:03:11.559Z,11.70
2019-02-08T14:08:17.470Z,11.70
2019-02-08T14:13:23.642Z,11.80
2019-02-08T14:18:29.005Z,11.70
2019-02-08T14:23:34.884Z,11.70
2019-02-08T14:28:41.710Z,11.70
2019-02-08T14:33:49.004Z,11.70
2019-02-08T14:38:56.226Z,11.60
2019-02-08T14:44:03.637Z,11.60
2019-02-08T14:49:10.231Z,11.50
2019-02-08T14:54:18.002Z,11.50
2019-02-08T14:59:23.519Z,11.50
2019-02-08T15:04:29.843Z,11.40
2019-02-08T15:09:37.378Z,11.40
2019-02-08T15:14:45.303Z,11.40
2019-02-08T15:19:51.085Z,11.40
2019-02-08T15:24:56.590Z,11.30
2019-02-08T15:30:02.905Z,11.30
2019-02-08T15:35:10.312Z,11.30
2019-02-08T15:40:24.755Z,11.30
2019-02-08T15:45:32.853Z,11.30
2019-02-08T15:50:39.358Z,11.20
2019-02-08T15:55:46.401Z,11.20
2019-02-08T16:00:52.914Z,11.20
2019-02-08T16:05:58.904Z,11.20
2019-02-08T16:11:04.266Z,11.10
2019-02-08T16:16:11.597Z,11.10
2019-02-08T16:21:17.952Z,11.10
2019-02-08T16:26:24.761Z,11.00
2019-02-08T16:31:31.172Z,11.00
2019-02-08T16:36:36.838Z,11.00
2019-02-08T16:41:42.970Z,11.00
2019-02-08T16:46:50.001Z,11.00
2019-02-08T16:51:57.158Z,11.00
2019-02-08T16:57:09.712Z,10.90
2019-02-08T17:02:18.473Z,10.90
2019-02-08T17:07:26.830Z,11.00
2019-02-08T17:12:32.321Z,10.90
2019-02-08T17:17:39.330Z,10.90
2019-02-08T17:22:46.060Z,10.90
2019-02-08T17:27:55.324Z,10.90
2019-02-08T17:32:59.416Z,10.90
2019-02-08T17:38:06.170Z,10.90
2019-02-08T17:43:11.782Z,10.90
2019-02-08T17:48:19.012Z,10.90
2019-02-08T17:53:26.989Z,10.90
2019-02-08T17:58:33.538Z,10.90
2019-02-08T18:03:38.964Z,10.90
2019-02-08T18:08:45.253Z,10.90
2019-02-08T18:13:51.705Z,10.90
2019-02-08T18:18:56.894Z,10.90
2019-02-08T18:24:05.518Z,10.90
2019-02-08T18:29:10.915Z,10.90
2019-02-08T18:34:18.106Z,10.90
2019-02-08T18:39:24.534Z,10.90
2019-02-08T18:44:30.490Z,10.90
2019-02-08T18:49:35.828Z,10.90
2019-02-08T18:54:45.137Z,10.90
2019-02-08T18:59:50.640Z,10.90
2019-02-08T19:04:58.297Z,10.90
2019-02-08T19:10:04.650Z,10.90
2019-02-08T19:15:11.741Z,10.90
2019-02-08T19:20:20.106Z,10.90
2019-02-08T19:25:36.539Z,10.90
2019-02-08T19:30:42.973Z,10.90
2019-02-08T19:35:48.895Z,10.90
2019-02-08T19:40:56.363Z,10.90
2019-02-08T19:46:01.981Z,10.80
2019-02-08T19:51:08.961Z,10.80
2019-02-08T19:56:15.003Z,10.90
2019-02-08T20:01:26.408Z,10.80
2019-02-08T20:06:32.247Z,10.80
2019-02-08T20:11:37.607Z,10.80
2019-02-08T20:16:44.974Z,10.80
2019-02-08T20:21:51.525Z,10.80
2019-02-08T20:26:57.310Z,10.90
2019-02-08T20:32:03.004Z,10.90
2019-02-08T20:37:10.338Z,10.90
2019-02-08T20:42:16.017Z,10.90
2019-02-08T20:47:22.660Z,10.90
2019-02-08T20:52:28.504Z,10.90
2019-02-08T20:57:36.885Z,10.80
2019-02-08T21:02:46.015Z,10.90
2019-02-08T21:07:52.758Z,10.80
2019-02-08T21:13:00.025Z,10.80
2019-02-08T21:18:36.347Z,10.80
2019-02-08T21:23:43.707Z,10.80
2019-02-08T21:28:57.954Z,10.80
2019-02-08T21:34:01.961Z,10.80
2019-02-08T21:39:10.156Z,10.80
2019-02-08T21:44:18.093Z,10.80
2019-02-08T21:49:24.885Z,10.70
2019-02-08T21:54:32.176Z,10.70
2019-02-08T21:59:37.573Z,10.70
2019-02-08T22:04:43.924Z,10.70
2019-02-08T22:09:50.573Z,10.70
2019-02-08T22:14:57.769Z,10.70
2019-02-08T22:20:07.675Z,10.70
2019-02-08T22:25:16.702Z,10.70
2019-02-08T22:30:24.681Z,10.70
2019-02-08T22:35:30.733Z,10.70
2019-02-08T22:40:37.094Z,10.70
2019-02-08T22:45:43.571Z,10.70
2019-02-08T22:50:50.038Z,10.70
2019-02-08T22:55:57.641Z,10.70
2019-02-08T23:01:27.242Z,10.70
2019-02-08T23:06:33.647Z,10.70
2019-02-08T23:11:40.133Z,10.60
2019-02-08T23:16:48.551Z,10.60
2019-02-08T23:21:55.549Z,10.60
2019-02-08T23:27:01.410Z,10.50
2019-02-08T23:32:09.260Z,10.50
2019-02-08T23:37:15.641Z,10.40
2019-02-08T23:42:23.450Z,10.30
2019-02-08T23:47:30.780Z,10.30
2019-02-08T23:52:37.517Z,10.20
2019-02-08T23:57:43.638Z,10.20
